CheckWX is a tool to help pilots better visualize weather data.  It is not intended as a substitute for an official pre-flight weather briefing.

22:40:25 UTC

KGRR METAR
Gerald R Ford International Airport
Grand Rapids, Michigan, USA
Current

47 mins ago

KGRR 202153Z 09007KT 10SM -RA FEW010 SCT038 BKN070 OVC140 23/21 A2989 RMK AO2 RAB28 PRESFR SLP115 P0000 T02280211 $
Observed
Jul-20 @ 21:53 UTC
Wind
  • 090° at 7 KTS
Visibility
10 SM
Flight Rules
VFR
Conditions
Light Rain
Cloud Levels
  • Few at 1,000' AGL
  • Scattered at 3,800' AGL
  • Broken at 7,000' AGL
  • Overcast at 14,000' AGL
Temperature
23°C / 73°F
Dewpoint
21°C / 70°F
Humidity
89%
Altimeter
29.89" Hg
Pressure
1012.22 hPa
Current Rain
0.01"
Previous

2 hours ago

KGRR 202053Z 32010KT 10SM FEW012 BKN065 OVC110 23/22 A2992 RMK AO2 PK WND 32038/2007 WSHFT 1954 LTG DSNT ALQDS RAB04E53 TSE45 SLP128 P0010 60010 T02330217 53025 $
Observed
Jul-20 @ 20:53 UTC
Wind
  • 320° at 10 KTS
Visibility
10 SM
Flight Rules
VFR
Cloud Levels
  • Few at 1,200' AGL
  • Broken at 6,500' AGL
  • Overcast at 11,000' AGL
Temperature
23°C / 73°F
Dewpoint
22°C / 72°F
Humidity
94%
Altimeter
29.92" Hg
Pressure
1013.22 hPa
Current Rain
0.1"
Previous

3 hours ago

KGRR 202009Z 32025G38KT 7SM -TSRA SCT027CB BKN050 OVC160 27/20 A2991 RMK AO2 PK WND 32038/2007 WSHFT 1954 LTG DSNT NW-NE RAB04 PRESRR OCNL LTGICCG OHD TS OHD MOV SE P0000 T02720200
Observed
Jul-20 @ 20:09 UTC
Wind
  • 320° at 25 KTS
  • Gusting to 38 KTS
Visibility
7 SM
Flight Rules
VFR
Conditions
Light Thunderstorm, Light Rain
Cloud Levels
  • Scattered at 2,700' AGL
  • Broken at 5,000' AGL
  • Overcast at 16,000' AGL
Temperature
27°C / 81°F
Dewpoint
20°C / 68°F
Heat Index
29°C / 84°F
Humidity
66%
Altimeter
29.91" Hg
Pressure
1012.92 hPa
Current Rain
0.01"